createdAt,value
2024-03-08T00:00:53.169Z,9.70
2024-03-08T00:03:55.046Z,10.48
2024-03-08T00:06:56.894Z,9.93
2024-03-08T00:09:58.734Z,10.00
2024-03-08T00:13:00.614Z,11.00
2024-03-08T00:16:03.446Z,9.97
2024-03-08T00:19:05.332Z,9.95
2024-03-08T00:22:07.298Z,10.50
2024-03-08T00:25:10.310Z,10.05
2024-03-08T00:28:16.060Z,10.57
2024-03-08T00:31:18.175Z,10.50
2024-03-08T00:34:19.933Z,10.40
2024-03-08T00:37:23.062Z,10.25
2024-03-08T00:40:24.922Z,10.80
2024-03-08T00:43:27.117Z,10.63
2024-03-08T00:46:29.909Z,10.97
2024-03-08T00:49:31.742Z,10.00
2024-03-08T00:52:35.556Z,10.45
2024-03-08T00:55:37.405Z,10.80
2024-03-08T00:58:39.255Z,10.73
2024-03-08T01:01:45.252Z,10.43
2024-03-08T01:04:48.545Z,10.73
2024-03-08T01:07:50.888Z,10.68
2024-03-08T01:10:52.643Z,11.05
2024-03-08T01:13:54.644Z,11.10
2024-03-08T01:16:56.697Z,10.40
2024-03-08T01:19:59.629Z,10.57
2024-03-08T01:23:01.431Z,11.93
2024-03-08T01:26:03.450Z,11.30
2024-03-08T01:29:05.263Z,11.30
2024-03-08T01:32:07.477Z,11.20
2024-03-08T01:35:10.768Z,11.38
2024-03-08T01:38:12.595Z,11.38
2024-03-08T01:41:15.373Z,11.65
2024-03-08T01:44:18.769Z,11.37
2024-03-08T01:47:24.151Z,10.80
2024-03-08T01:50:26.132Z,11.30
2024-03-08T01:53:29.402Z,11.10
2024-03-08T01:56:33.046Z,11.02
2024-03-08T01:59:35.116Z,11.47
2024-03-08T02:02:38.648Z,11.17
2024-03-08T02:05:42.450Z,10.45
2024-03-08T02:08:45.592Z,11.20
2024-03-08T02:11:47.571Z,12.27
2024-03-08T02:14:49.706Z,11.13
2024-03-08T02:17:51.594Z,11.50
2024-03-08T02:21:04.194Z,12.02
2024-03-08T02:24:07.150Z,12.18
2024-03-08T02:27:09.045Z,12.18
2024-03-08T02:30:13.899Z,12.17
2024-03-08T02:33:20.942Z,11.47
2024-03-08T02:36:22.856Z,12.07
2024-03-08T02:39:24.768Z,12.55
2024-03-08T02:42:26.552Z,12.25
2024-03-08T02:45:28.337Z,12.67
2024-03-08T02:48:30.199Z,12.67
2024-03-08T02:51:32.163Z,13.18
2024-03-08T02:54:33.933Z,13.10
2024-03-08T02:57:35.760Z,11.63
2024-03-08T03:00:39.916Z,12.07
2024-03-08T03:03:42.475Z,11.73
2024-03-08T03:06:44.273Z,12.45
2024-03-08T03:09:46.545Z,12.43
2024-03-08T03:12:51.944Z,12.25
2024-03-08T03:15:53.738Z,11.17
2024-03-08T03:18:57.192Z,11.70
2024-03-08T03:21:59.263Z,13.30
2024-03-08T03:25:01.659Z,12.25
2024-03-08T03:28:03.860Z,12.82
2024-03-08T03:31:07.930Z,12.67
2024-03-08T03:34:11.261Z,12.53
2024-03-08T03:37:13.753Z,13.13
2024-03-08T03:40:16.083Z,12.68
2024-03-08T03:43:17.825Z,12.85
2024-03-08T03:46:19.714Z,12.80
2024-03-08T03:49:21.629Z,13.97
2024-03-08T03:52:23.563Z,13.98
2024-03-08T03:55:25.454Z,15.15
2024-03-08T03:58:28.507Z,14.13
2024-03-08T04:01:30.838Z,17.70
2024-03-08T04:04:32.799Z,16.07
2024-03-08T04:07:35.517Z,14.30
2024-03-08T04:10:37.758Z,14.63
2024-03-08T04:13:39.566Z,13.15
2024-03-08T04:16:41.317Z,13.20
2024-03-08T04:19:43.687Z,15.10
2024-03-08T04:22:48.256Z,14.60
2024-03-08T04:25:50.103Z,18.00
2024-03-08T04:28:51.837Z,18.38
2024-03-08T04:31:57.175Z,17.60
2024-03-08T04:34:59.476Z,15.03
2024-03-08T04:38:01.257Z,14.95
2024-03-08T04:41:03.157Z,15.13
2024-03-08T04:44:05.025Z,12.32
2024-03-08T04:47:09.730Z,12.23
2024-03-08T04:50:12.456Z,12.13
2024-03-08T04:53:14.873Z,11.68
2024-03-08T04:56:17.191Z,11.70
2024-03-08T04:59:19.040Z,11.05
2024-03-08T05:02:23.959Z,11.53
2024-03-08T05:05:26.069Z,11.67
2024-03-08T05:08:27.898Z,11.88
2024-03-08T05:11:29.727Z,12.43
2024-03-08T05:14:31.627Z,11.80
2024-03-08T05:17:33.499Z,12.50
2024-03-08T05:20:36.260Z,11.60
2024-03-08T05:23:39.885Z,12.25
2024-03-08T05:26:41.733Z,12.68
2024-03-08T05:29:43.592Z,11.63
2024-03-08T05:32:47.997Z,11.83
2024-03-08T05:35:49.848Z,13.30
2024-03-08T05:38:51.772Z,11.80
2024-03-08T05:41:54.002Z,11.98
2024-03-08T05:44:58.425Z,11.65
2024-03-08T05:48:00.341Z,12.40
2024-03-08T05:51:03.329Z,12.17
2024-03-08T05:54:07.116Z,11.15
2024-03-08T05:57:09.281Z,11.50
2024-03-08T06:00:16.963Z,11.15
2024-03-08T06:03:22.588Z,10.70
2024-03-08T06:06:25.488Z,11.83
2024-03-08T06:09:27.398Z,11.18
2024-03-08T06:12:33.552Z,14.30
2024-03-08T06:15:35.941Z,11.63
2024-03-08T06:18:38.039Z,10.70
2024-03-08T06:21:40.392Z,11.60
2024-03-08T06:24:42.244Z,13.52
2024-03-08T06:27:44.910Z,10.57
2024-03-08T06:30:46.893Z,10.40
2024-03-08T06:33:51.071Z,9.73
2024-03-08T06:36:53.719Z,9.83
2024-03-08T06:39:56.452Z,10.80
2024-03-08T06:42:58.222Z,10.48
2024-03-08T06:46:00.038Z,10.63
2024-03-08T06:49:01.943Z,11.10
2024-03-08T06:52:05.295Z,10.57
2024-03-08T06:55:07.593Z,9.15
2024-03-08T06:58:11.806Z,9.63
2024-03-08T07:01:16.022Z,9.82
2024-03-08T07:04:18.048Z,11.37
2024-03-08T07:07:21.549Z,10.50
2024-03-08T07:10:26.865Z,9.70
2024-03-08T07:13:30.122Z,10.05
2024-03-08T07:16:32.092Z,10.90
2024-03-08T07:19:33.847Z,10.03
2024-03-08T07:22:37.875Z,10.03
2024-03-08T07:25:40.753Z,10.32
2024-03-08T07:28:42.572Z,10.02
2024-03-08T07:32:03.259Z,10.00
2024-03-08T07:35:08.341Z,10.57
2024-03-08T07:38:11.365Z,10.10
2024-03-08T07:41:15.677Z,9.88
2024-03-08T07:44:17.522Z,10.95
2024-03-08T07:47:21.235Z,10.20
2024-03-08T07:50:24.535Z,9.87
2024-03-08T07:53:26.422Z,10.10
2024-03-08T07:56:28.157Z,9.82
2024-03-08T07:59:31.794Z,9.38
2024-03-08T08:02:37.385Z,10.07
2024-03-08T08:05:40.528Z,9.37
2024-03-08T08:08:45.500Z,10.13
2024-03-08T08:11:48.014Z,9.15
2024-03-08T08:14:49.749Z,9.43
2024-03-08T08:17:53.169Z,9.60
2024-03-08T08:20:55.243Z,10.17
2024-03-08T08:23:57.043Z,10.50
2024-03-08T08:26:58.799Z,9.70
2024-03-08T08:30:01.461Z,10.35
2024-03-08T08:33:03.509Z,10.05
2024-03-08T08:36:05.818Z,10.90
2024-03-08T08:39:14.346Z,10.80
2024-03-08T08:42:18.956Z,9.52
2024-03-08T08:45:24.465Z,9.85
2024-03-08T08:48:35.666Z,9.40
2024-03-08T08:51:38.707Z,9.73
2024-03-08T08:54:40.621Z,10.13
2024-03-08T08:57:51.101Z,10.25
2024-03-08T09:00:53.502Z,10.43
2024-03-08T09:03:55.306Z,10.20
2024-03-08T09:06:58.014Z,10.47
2024-03-08T09:10:00.158Z,10.63
2024-03-08T09:13:05.537Z,10.93
2024-03-08T09:16:07.949Z,11.48
2024-03-08T09:19:12.145Z,10.52
2024-03-08T09:22:14.611Z,10.80
2024-03-08T09:25:16.421Z,11.13
2024-03-08T09:28:18.277Z,10.27
2024-03-08T09:31:20.977Z,9.82
2024-03-08T09:34:29.135Z,11.07
2024-03-08T09:37:35.429Z,10.40
2024-03-08T09:40:37.210Z,9.77
2024-03-08T09:43:39.713Z,10.88
2024-03-08T09:46:41.920Z,11.65
2024-03-08T09:49:44.629Z,10.20
2024-03-08T09:52:50.764Z,10.87
2024-03-08T09:55:53.287Z,11.50
2024-03-08T09:59:15.111Z,10.75
2024-03-08T10:02:17.657Z,10.18
2024-03-08T10:05:19.797Z,10.30
2024-03-08T10:08:21.714Z,10.50
2024-03-08T10:11:24.188Z,10.00
2024-03-08T10:14:29.414Z,10.55
2024-03-08T10:17:34.304Z,11.30
2024-03-08T10:20:39.442Z,11.73
2024-03-08T10:23:43.140Z,10.97
2024-03-08T10:26:45.414Z,12.43
2024-03-08T10:29:49.060Z,11.27
2024-03-08T10:32:51.029Z,11.85
2024-03-08T10:36:03.928Z,11.95
2024-03-08T10:39:22.087Z,12.50
2024-03-08T10:42:29.976Z,12.27
2024-03-08T10:45:37.755Z,12.23
2024-03-08T10:48:50.572Z,13.13
2024-03-08T10:51:54.056Z,12.85
2024-03-08T10:55:16.922Z,13.20
2024-03-08T10:58:28.277Z,12.10
2024-03-08T11:01:31.107Z,13.25
2024-03-08T11:04:34.654Z,12.70
2024-03-08T11:07:36.678Z,13.57
2024-03-08T11:10:48.835Z,13.73
2024-03-08T11:13:50.752Z,12.87
2024-03-08T11:16:52.682Z,14.25
2024-03-08T11:20:07.101Z,13.10
2024-03-08T11:23:12.691Z,13.30
2024-03-08T11:26:21.703Z,15.20
2024-03-08T11:29:33.767Z,16.23
2024-03-08T11:32:37.648Z,15.95
2024-03-08T11:35:39.937Z,16.25
2024-03-08T11:38:42.950Z,14.65
2024-03-08T11:41:46.634Z,16.17
2024-03-08T11:44:49.155Z,16.03
2024-03-08T11:47:51.825Z,15.20
2024-03-08T11:51:03.094Z,15.57
2024-03-08T11:54:05.267Z,13.55
2024-03-08T11:57:07.568Z,15.70
2024-03-08T12:00:22.856Z,14.10
2024-03-08T12:03:24.699Z,14.63
2024-03-08T12:06:28.205Z,14.48
2024-03-08T12:09:30.503Z,13.60
2024-03-08T12:12:33.861Z,14.47
2024-03-08T12:15:35.877Z,15.80
2024-03-08T12:18:39.804Z,14.80
2024-03-08T12:21:49.659Z,15.43
2024-03-08T12:25:06.669Z,15.13
2024-03-08T12:28:14.648Z,15.60
2024-03-08T12:31:26.961Z,14.00
2024-03-08T12:34:29.587Z,14.18
2024-03-08T12:37:32.568Z,14.80
2024-03-08T12:40:36.226Z,15.65
2024-03-08T12:43:38.350Z,14.30
2024-03-08T12:46:41.587Z,14.07
2024-03-08T12:49:43.550Z,15.68
2024-03-08T12:52:45.454Z,15.82
2024-03-08T12:55:47.351Z,16.00
2024-03-08T12:58:49.405Z,15.87
2024-03-08T13:01:52.752Z,14.90
2024-03-08T13:05:00.376Z,15.20
2024-03-08T13:08:23.077Z,14.57
2024-03-08T13:11:30.927Z,16.35
2024-03-08T13:14:34.375Z,15.70
2024-03-08T13:17:36.194Z,15.83
2024-03-08T13:20:46.904Z,16.13
2024-03-08T13:23:50.669Z,16.02
2024-03-08T13:26:52.487Z,14.93
2024-03-08T13:29:54.321Z,15.93
2024-03-08T13:32:56.497Z,16.47
2024-03-08T13:36:04.566Z,16.85
2024-03-08T13:39:16.357Z,16.67
2024-03-08T13:42:18.392Z,17.08
2024-03-08T13:45:25.085Z,16.80
2024-03-08T13:48:27.466Z,17.10
2024-03-08T13:51:29.214Z,17.70
2024-03-08T13:54:32.607Z,17.40
2024-03-08T13:57:34.736Z,16.58
2024-03-08T14:00:37.802Z,16.47
2024-03-08T14:03:42.749Z,17.37
2024-03-08T14:06:46.138Z,18.30
2024-03-08T14:09:47.986Z,18.50
2024-03-08T14:12:51.840Z,17.70
2024-03-08T14:15:54.097Z,17.60
2024-03-08T14:18:55.914Z,18.57
2024-03-08T14:22:00.332Z,18.20
2024-03-08T14:25:08.905Z,18.00
2024-03-08T14:28:13.577Z,17.25
2024-03-08T14:31:19.940Z,18.20
2024-03-08T14:34:22.078Z,18.60
2024-03-08T14:37:29.324Z,18.00
2024-03-08T14:40:31.822Z,17.38
2024-03-08T14:43:33.714Z,18.98
2024-03-08T14:46:36.352Z,18.97
2024-03-08T14:49:39.365Z,20.27
2024-03-08T14:52:41.434Z,20.48
2024-03-08T14:55:44.089Z,21.00
2024-03-08T14:58:47.633Z,26.02
2024-03-08T15:01:49.521Z,19.40
2024-03-08T15:04:58.461Z,19.13
2024-03-08T15:08:11.140Z,18.73
2024-03-08T15:11:22.412Z,19.90
2024-03-08T15:14:26.171Z,19.08
2024-03-08T15:17:28.020Z,19.73
2024-03-08T15:20:31.414Z,20.67
2024-03-08T15:23:37.395Z,19.75
2024-03-08T15:26:39.853Z,19.85
2024-03-08T15:29:41.911Z,21.10
2024-03-08T15:32:47.265Z,19.73
2024-03-08T15:36:00.722Z,19.77
2024-03-08T15:39:04.118Z,20.00
2024-03-08T15:42:06.690Z,22.08
2024-03-08T15:45:10.030Z,19.42
2024-03-08T15:48:11.855Z,23.13
2024-03-08T15:51:14.702Z,20.93
2024-03-08T15:54:16.948Z,20.90
2024-03-08T15:57:21.689Z,20.40
2024-03-08T16:00:43.080Z,20.23
2024-03-08T16:03:50.765Z,21.20
2024-03-08T16:06:52.734Z,21.10
2024-03-08T16:09:54.755Z,21.50
2024-03-08T16:12:57.549Z,19.98
2024-03-08T16:16:02.081Z,20.92
2024-03-08T16:19:08.450Z,23.00
2024-03-08T16:22:10.340Z,20.27
2024-03-08T16:25:14.421Z,28.83
2024-03-08T16:28:16.512Z,23.23
2024-03-08T16:31:18.344Z,23.65
2024-03-08T16:34:21.558Z,24.10
2024-03-08T16:37:26.219Z,21.97
2024-03-08T16:40:28.959Z,21.65
2024-03-08T16:43:31.107Z,20.67
2024-03-08T16:46:35.785Z,19.13
2024-03-08T16:49:43.493Z,20.77
2024-03-08T16:52:45.709Z,18.53
2024-03-08T16:55:52.638Z,19.80
2024-03-08T16:58:55.265Z,23.27
2024-03-08T17:01:57.218Z,21.33
2024-03-08T17:04:59.154Z,22.47
2024-03-08T17:08:05.946Z,24.27
2024-03-08T17:11:12.452Z,26.60
2024-03-08T17:14:14.290Z,27.38
2024-03-08T17:17:17.548Z,27.60
2024-03-08T17:20:23.408Z,35.20
2024-03-08T17:23:25.366Z,34.17
2024-03-08T17:26:27.383Z,30.33
2024-03-08T17:29:29.217Z,28.85
2024-03-08T17:32:34.677Z,29.42
2024-03-08T17:35:39.322Z,25.97
2024-03-08T17:38:51.736Z,21.00
2024-03-08T17:41:55.064Z,22.00
2024-03-08T17:45:00.080Z,19.23
2024-03-08T17:48:04.933Z,19.35
2024-03-08T17:51:06.764Z,19.77
2024-03-08T17:54:12.048Z,21.23
2024-03-08T17:57:15.617Z,20.25
2024-03-08T18:00:19.313Z,20.63
2024-03-08T18:03:28.827Z,27.90
2024-03-08T18:06:30.976Z,24.00
2024-03-08T18:09:32.741Z,33.37
2024-03-08T18:12:36.161Z,30.83
2024-03-08T18:15:37.967Z,27.13
2024-03-08T18:18:39.689Z,24.42
2024-03-08T18:21:41.474Z,23.73
2024-03-08T18:24:46.283Z,30.17
2024-03-08T18:27:48.084Z,24.65
2024-03-08T18:30:50.903Z,19.98
2024-03-08T18:33:52.834Z,20.27
2024-03-08T18:36:55.100Z,21.73
2024-03-08T18:39:57.375Z,19.60
2024-03-08T18:42:59.285Z,19.65
2024-03-08T18:46:02.368Z,19.40
2024-03-08T18:49:06.236Z,19.58
2024-03-08T18:52:08.501Z,23.17
2024-03-08T18:55:10.921Z,22.83
2024-03-08T18:58:12.874Z,20.48
2024-03-08T19:01:14.799Z,18.83
2024-03-08T19:04:17.227Z,19.33
2024-03-08T19:07:23.224Z,20.10
2024-03-08T19:10:26.648Z,17.77
2024-03-08T19:13:28.877Z,17.33
2024-03-08T19:16:30.734Z,16.77
2024-03-08T19:19:35.878Z,17.02
2024-03-08T19:22:38.932Z,19.30
2024-03-08T19:25:45.851Z,18.40
2024-03-08T19:28:48.187Z,17.35
2024-03-08T19:31:50.858Z,17.38
2024-03-08T19:34:53.167Z,17.42
2024-03-08T19:37:56.788Z,16.27
2024-03-08T19:40:58.768Z,16.57
2024-03-08T19:44:00.781Z,15.93
2024-03-08T19:47:05.614Z,16.27
2024-03-08T19:50:10.221Z,16.83
2024-03-08T19:53:12.718Z,16.73
2024-03-08T19:56:14.598Z,16.93
2024-03-08T19:59:16.677Z,17.92
2024-03-08T20:02:19.209Z,18.40
2024-03-08T20:05:22.238Z,18.25
2024-03-08T20:08:29.813Z,18.80
2024-03-08T20:11:33.314Z,18.43
2024-03-08T20:14:36.347Z,18.42
2024-03-08T20:17:39.745Z,18.50
2024-03-08T20:20:44.246Z,19.17
2024-03-08T20:23:46.613Z,19.00
2024-03-08T20:26:48.341Z,21.37
2024-03-08T20:29:50.378Z,19.73
2024-03-08T20:32:55.613Z,19.23
2024-03-08T20:35:57.442Z,19.20
2024-03-08T20:38:59.213Z,19.60
2024-03-08T20:42:01.338Z,20.30
2024-03-08T20:45:04.474Z,20.10
2024-03-08T20:48:07.637Z,20.13
2024-03-08T20:51:09.635Z,20.15
2024-03-08T20:54:11.397Z,20.73
2024-03-08T20:57:14.185Z,20.87
2024-03-08T21:00:20.488Z,19.33
2024-03-08T21:03:24.701Z,20.75
2024-03-08T21:06:26.713Z,20.25
2024-03-08T21:09:32.035Z,16.97
2024-03-08T21:12:34.278Z,17.80
2024-03-08T21:15:36.761Z,18.02
2024-03-08T21:18:39.998Z,22.30
2024-03-08T21:21:42.157Z,24.40
2024-03-08T21:24:44.145Z,24.80
2024-03-08T21:27:48.909Z,20.60
2024-03-08T21:30:51.675Z,27.40
2024-03-08T21:33:54.535Z,19.33
2024-03-08T21:36:57.938Z,17.17
2024-03-08T21:40:01.161Z,18.17
2024-03-08T21:43:04.721Z,20.40
2024-03-08T21:46:06.822Z,21.10
2024-03-08T21:49:08.556Z,25.13
2024-03-08T21:52:10.310Z,20.98
2024-03-08T21:55:13.028Z,23.97
2024-03-08T21:58:14.867Z,20.57
2024-03-08T22:01:18.618Z,21.40
2024-03-08T22:04:24.107Z,19.73
2024-03-08T22:07:25.933Z,21.30
2024-03-08T22:10:30.763Z,20.40
2024-03-08T22:13:32.916Z,21.63
2024-03-08T22:16:36.581Z,20.30
2024-03-08T22:19:38.501Z,18.45
2024-03-08T22:22:41.908Z,17.88
2024-03-08T22:25:43.858Z,19.40
2024-03-08T22:28:48.142Z,19.73
2024-03-08T22:31:50.717Z,21.30
2024-03-08T22:34:52.543Z,19.95
2024-03-08T22:37:55.474Z,18.70
2024-03-08T22:40:59.546Z,18.13
2024-03-08T22:44:01.530Z,16.23
2024-03-08T22:47:04.839Z,16.85
2024-03-08T22:50:09.330Z,16.35
2024-03-08T22:53:14.745Z,16.90
2024-03-08T22:56:16.796Z,17.20
2024-03-08T22:59:18.892Z,17.00
2024-03-08T23:02:21.568Z,16.85
2024-03-08T23:05:23.963Z,17.08
2024-03-08T23:08:30.718Z,17.95
2024-03-08T23:11:32.560Z,17.93
2024-03-08T23:14:34.373Z,17.00
2024-03-08T23:17:44.936Z,16.65
2024-03-08T23:20:50.026Z,18.15
2024-03-08T23:23:52.163Z,17.60
2024-03-08T23:26:54.122Z,17.00
2024-03-08T23:29:57.650Z,17.33
2024-03-08T23:32:59.524Z,17.67
2024-03-08T23:36:01.572Z,17.90
2024-03-08T23:39:03.665Z,17.20
2024-03-08T23:42:05.925Z,16.70
2024-03-08T23:45:12.601Z,17.33
2024-03-08T23:48:15.853Z,16.85
2024-03-08T23:51:19.341Z,16.75
2024-03-08T23:54:23.644Z,17.25
2024-03-08T23:57:25.468Z,16.30
